Barnstable Municipal Boardman Polando Field
KHYA : rendu visible

Aérodrome :











RETROUVEZ-NOUS SUR...

 
LOGIN :

S'inscrire | Disclaimer

   EN    FR    IT 

 









Légende :    VFR   VFR Marginal   IFR   IFR Intensif   IFR Très Intensif
Visi : 
Plafond : 
>= 8 km
>= 3000ft
5 à 8 km
1000 à 3000 ft
1500m à 5 km
500 à 1000 ft
800 à 1500m
200 à 500 ft
< 800m
< 200 ft
Symboles :   Orages  Brouillard  Fortes neiges  Fortes précipitations  Vent > 20 kt






- Altitude de l'aérodrome : 54 ft
- Code IATA : HYA


KHYA - Barnstable Municipal Boardman Polando Field

DERNIER METAR :
  • 261756Z 17006KT 10SM BKN014 21/16 A3021 RMK AO2 SLP230 T02060161 10228 20161 53001

METARs EXPIRÉS :
  • 261656Z 18005KT 10SM OVC018 21/16 A3020 RMK AO2 SLP229 T02060156
  • 261556Z 16005KT 10SM OVC018 22/16 A3020 RMK AO2 SLP227 T02170161

TAF KHYA
Valide du 26 à 18h jusqu'au 27 à 18h UTC


261732Z 2618/2718 16006KT 6SM BR OVC015
FM262300 19007KT 2SM BR BKN008
FM270400 21005KT 1/4SM FG VCSH OVC003
FM271200 21007KT 2SM BR OVC010
FM271600 21010G18KT 5SM BR BKN020
FIR KZBW / Amérique du Nord



MET'MAP, la Météo Aéronautique d'un coup d'oeil ! - Copyright ORBIFLY Décembre 2007 - Disclaimer

ORBIFLY MET'MAP TEAM :

Programmation & Développement : Alexandra Zaïnal
Sur une idée originale de : Baudouin d'Aumeries
Assistance à la programmation : Marc-Olivier Méhu
Soutien technique & logistique : Manuel Goepfert

Contact : metmap@orbifly.com




SOURCES & CREDITS :

   NOAA       Earth
Advisory